CheckWX is a tool to help pilots better visualize weather data.  It is not intended as a substitute for an official pre-flight weather briefing.

03:35:53 UTC

CYYE METAR
Fort Nelson Airport
Fort Nelson, Canada
Current

36 mins ago

CYYE 270300Z 35005KT 12SM FEW130 BKN250 26/04 A2981 RMK AC1CI6 AC TR SLP099 DENSITY ALT 3000FT
Observed
May-27 @ 03:00 UTC
Wind
  • 350° at 5 KTS
Visibility
12 SM
Flight Rules
VFR
Cloud Levels
  • Few at 13,000' AGL
  • Broken at 25,000' AGL
Temperature
26°C / 79°F
Dewpoint
C / 39°F
Humidity
24%
Altimeter
29.81" Hg
Pressure
1009.52 hPa
Previous

2 hours ago

CYYE 270200Z 04006KT 12SM FEW120 SCT250 28/04 A2981 RMK AC1CI4 AC TR FU SLP100 DENSITY ALT 3100FT
Observed
May-27 @ 02:00 UTC
Wind
  • 040° at 6 KTS
Visibility
12 SM
Flight Rules
VFR
Cloud Levels
  • Few at 12,000' AGL
  • Scattered at 25,000' AGL
Temperature
28°C / 82°F
Dewpoint
C / 39°F
Humidity
21%
Altimeter
29.81" Hg
Pressure
1009.52 hPa
Previous

3 hours ago

CYYE 270100Z 35005KT 300V030 12SM FEW100 BKN250 27/03 A2981 RMK CU1CI5 SLP101 DENSITY ALT 3100FT
Observed
May-27 @ 01:00 UTC
Wind
  • 350° at 5 KTS
Visibility
12 SM
Flight Rules
VFR
Cloud Levels
  • Few at 10,000' AGL
  • Broken at 25,000' AGL
Temperature
27°C / 81°F
Dewpoint
C / 37°F
Humidity
21%
Altimeter
29.81" Hg
Pressure
1009.52 hPa